Santa Lucia — 3EGG4 — position and weather

sailwx.info

Track history (hours):
 
Tides and Currents Weather Stations Pressure Air Temp Water Temp Dewpoint Dewpoint Depression Visibility Wind Speed Wind Dir Waves Ship Positions

Santa Lucia

Last reported at 2018-Feb-14 18:11 UTC. Time now 2018-Feb-24 12:18 UTC.
Position S 24°27' E 154°16'.
Warning: this ship's position is 9 days out of date.

Length 289 m; draft 15 m.

Type: Ship. MMSI: 371065000.

Date/timePositionNaut miles runAvg speedWind from/ knotsBaromVisibWave heightAir tempDewpointWater temp
2018-Feb-14 18:11S 24°27' E 154°16'1214.4
2018-Feb-14 17:19S 24°39' E 154°15'9312.6
2018-Feb-14 09:56S 26°11' E 154°04'810.7
2018-Feb-14 09:10S 26°19' E 154°04'210.7
2018-Feb-14 09:00S 26°21' E 154°03'1111.1
2018-Feb-14 08:03S 26°32' E 154°02'211.7
2018-Feb-14 07:55S 26°33' E 154°02'512.3
2018-Feb-14 07:29S 26°39' E 154°02'612.7
2018-Feb-14 07:01S 26°45' E 154°01'612.8
2018-Feb-14 06:30S 26°51' E 154°00'612.6
2018-Feb-14 06:01S 26°57' E 153°59'612.4
2018-Feb-14 05:30S 27°04' E 153°59'612.1
2018-Feb-14 05:00S 27°10' E 153°58'611.7
2018-Feb-14 04:30S 27°15' E 153°57'611.3
2018-Feb-14 03:59S 27°21' E 153°56'611.3
2018-Feb-14 03:29S 27°27' E 153°56'611.2
2018-Feb-14 02:54S 27°33' E 153°55'411.1
2018-Feb-14 02:31S 27°38' E 153°55'611.0
2018-Feb-14 02:01S 27°43' E 153°54'611.1
2018-Feb-14 01:31S 27°49' E 153°53'510.8
2018-Feb-14 01:00S 27°54' E 153°53'510.6
2018-Feb-14 00:30S 27°59' E 153°52'510.6
2018-Feb-14 00:01S 28°05' E 153°52'510.6
2018-Feb-13 23:30S 28°10' E 153°51'611.1
2018-Feb-13 23:00S 28°15' E 153°51'611.4
2018-Feb-13 22:30S 28°21' E 153°50'611.3
2018-Feb-13 22:00S 28°27' E 153°50'611.2
2018-Feb-13 21:30S 28°32' E 153°50'611.2
2018-Feb-13 21:00S 28°38' E 153°49'611.3
2018-Feb-13 20:30S 28°44' E 153°48'22011.8
2018-Feb-13 01:50S 32°18' E 152°50'514.7
2018-Feb-13 01:29S 32°22' E 152°48'714.2
2018-Feb-13 01:00S 32°28' E 152°44'713.8
2018-Feb-13 00:30S 32°33' E 152°38'713.3
2018-Feb-13 00:00S 32°38' E 152°32'713.1
2018-Feb-12 23:30S 32°42' E 152°27'713.2
2018-Feb-12 23:00S 32°47' E 152°21'612.9
2018-Feb-12 22:30S 32°51' E 152°16'613.0
2018-Feb-12 22:01S 32°54' E 152°08'712.9
2018-Feb-12 21:30S 32°56' E 152°01'612.2
2018-Feb-12 21:01S 32°56' E 151°54'4 8.4
2018-Feb-12 20:31S 32°55' E 151°49'2 4.3
2018-Feb-12 20:01S 32°55' E 151°47'2 3.4
2018-Feb-12 19:31S 32°53' E 151°46'0 0.1
2018-Feb-12 19:00S 32°53' E 151°46'0 0.0
2018-Feb-12 18:30S 32°53' E 151°46'0 0.0
2018-Feb-12 18:00S 32°53' E 151°46'0 0.0
2018-Feb-12 17:30S 32°53' E 151°46'0 0.0
2018-Feb-12 17:00S 32°53' E 151°46'0 0.0
2018-Feb-12 16:30S 32°53' E 151°46'0 0.0
2018-Feb-12 15:54S 32°53' E 151°46'0 0.0
2018-Feb-12 15:30S 32°53' E 151°46'0 0.0
2018-Feb-12 15:00S 32°53' E 151°46'0 0.0
2018-Feb-12 14:30S 32°53' E 151°46'0 0.1
2018-Feb-12 14:00S 32°53' E 151°46'0 0.1
2018-Feb-12 13:30S 32°53' E 151°46'0 0.0
2018-Feb-12 13:00S 32°53' E 151°46'0 0.0
2018-Feb-12 12:24S 32°53' E 151°46'0 0.0
2018-Feb-12 12:00S 32°53' E 151°46'0 0.0
2018-Feb-12 11:30S 32°53' E 151°46'0 0.0
2018-Feb-12 11:00S 32°53' E 151°46'0 0.0
2018-Feb-12 10:30S 32°53' E 151°46'0 0.1
2018-Feb-12 09:57S 32°53' E 151°46'0 0.0
2018-Feb-12 09:30S 32°53' E 151°46'0 0.1
2018-Feb-12 09:00S 32°53' E 151°46'0 0.0
2018-Feb-12 08:30S 32°53' E 151°46'0 0.0
2018-Feb-12 08:00S 32°53' E 151°46'0 0.0
2018-Feb-12 07:30S 32°53' E 151°46'0 0.0
2018-Feb-12 07:00S 32°53' E 151°46'0 0.0
2018-Feb-12 06:30S 32°53' E 151°46'0 0.0
2018-Feb-12 06:00S 32°53' E 151°46'0 0.0
2018-Feb-12 05:27S 32°53' E 151°46'0 0.0
2018-Feb-12 05:00S 32°53' E 151°46'0 0.0
2018-Feb-12 04:30S 32°53' E 151°46'0 0.0
2018-Feb-12 04:00S 32°53' E 151°46'0 0.0
2018-Feb-12 03:30S 32°53' E 151°46'0 0.0
2018-Feb-12 03:00S 32°53' E 151°46'0 0.0
2018-Feb-12 02:30S 32°53' E 151°46'0 0.1
2018-Feb-12 02:00S 32°53' E 151°46'0 0.1
2018-Feb-12 01:30S 32°53' E 151°46'0 0.0
2018-Feb-12 01:00S 32°53' E 151°46'0 0.0
2018-Feb-12 00:30S 32°53' E 151°46'0 0.0
2018-Feb-12 00:00S 32°53' E 151°46'0 0.0
2018-Feb-11 23:30S 32°53' E 151°46'0 0.0
2018-Feb-11 23:00S 32°53' E 151°46'0 0.0
2018-Feb-11 22:30S 32°53' E 151°46'0 0.1
2018-Feb-11 22:00S 32°53' E 151°46'0 0.1
2018-Feb-11 21:30S 32°53' E 151°46'0 0.0
2018-Feb-11 21:00S 32°53' E 151°46'0 0.0
2018-Feb-11 20:30S 32°53' E 151°46'0 0.0
2018-Feb-11 20:00S 32°53' E 151°46'0 0.0
2018-Feb-11 19:30S 32°53' E 151°46'0 0.0
2018-Feb-11 19:00S 32°53' E 151°46'0 0.1
2018-Feb-11 18:30S 32°53' E 151°46'0 0.0
2018-Feb-11 18:00S 32°53' E 151°46'0 0.1
2018-Feb-11 17:30S 32°53' E 151°46'0 0.0
2018-Feb-11 17:00S 32°53' E 151°46'0 0.0
2018-Feb-11 16:30S 32°53' E 151°46'0 0.0
2018-Feb-11 16:00S 32°53' E 151°46'0 0.0
2018-Feb-11 15:30S 32°53' E 151°46'0 0.0
2018-Feb-11 15:00S 32°53' E 151°46'0 0.0
2018-Feb-11 14:30S 32°53' E 151°46'0 0.1
2018-Feb-11 14:00S 32°53' E 151°46'0 0.1
2018-Feb-11 13:30S 32°53' E 151°46'0 0.0
2018-Feb-11 13:00S 32°53' E 151°46'0 0.1
2018-Feb-11 12:30S 32°53' E 151°46'1 1.5
2018-Feb-11 12:00S 32°54' E 151°46'2 3.1
2018-Feb-11 11:30S 32°55' E 151°48'4 8.5
2018-Feb-11 11:00S 32°58' E 151°52'4 7.2
2018-Feb-11 10:30S 33°00' E 151°54'3 6.3
2018-Feb-11 10:00S 33°03' E 151°57'3 6.4
2018-Feb-11 09:30S 33°05' E 151°59'2 4.1
2018-Feb-11 09:00S 33°07' E 152°01'1 2.3
2018-Feb-11 08:30S 33°06' E 151°60'4 7.7
2018-Feb-11 08:00S 33°05' E 151°55'1 2.3
2018-Feb-11 07:30S 33°04' E 151°54'0 0.6
2018-Feb-11 07:00S 33°04' E 151°55'1 1.9
2018-Feb-11 06:30S 33°04' E 151°54'4 7.8
2018-Feb-11 06:00S 33°00' E 151°52'4 8.4
2018-Feb-11 05:30S 32°56' E 151°52'2 4.0
2018-Feb-11 05:00S 32°55' E 151°50'4 8.7
2018-Feb-11 04:30S 32°59' E 151°53'3 6.0
2018-Feb-11 04:00S 33°01' E 151°54'1 2.3
2018-Feb-11 03:30S 33°01' E 151°55'1 1.8
2018-Feb-11 03:00S 33°00' E 151°56'1 2.6
2018-Feb-11 02:30S 32°60' E 151°57'2 4.6
2018-Feb-11 02:00S 32°58' E 151°59'3 6.0
2018-Feb-11 01:30S 32°56' E 152°01'713.6
2018-Feb-11 01:00S 32°53' E 152°09'713.5
2018-Feb-11 00:30S 32°50' E 152°16'613.0
2018-Feb-11 00:00S 32°46' E 152°22'713.9
2018-Feb-10 23:30S 32°41' E 152°28'714.6
2018-Feb-10 23:00S 32°36' E 152°34'714.5
2018-Feb-10 22:30S 32°31' E 152°40'714.2
2018-Feb-10 22:00S 32°26' E 152°46'714.1
2018-Feb-10 21:30S 32°19' E 152°49'714.0
2018-Feb-10 21:00S 32°13' E 152°52'714.2
2018-Feb-10 20:30S 32°06' E 152°56'714.9
2018-Feb-10 20:01S 31°60' E 152°59'816.8
2018-Feb-10 19:30S 31°52' E 153°03'1117.3
2018-Feb-10 18:52S 31°42' E 153°08'917.2
2018-Feb-10 18:22S 31°34' E 153°12'18216.3
2018-Feb-10 07:11S 28°34' E 153°45'315.3
2018-Feb-10 07:01S 28°31' E 153°46'815.5
2018-Feb-10 06:31S 28°24' E 153°47'815.6
2018-Feb-10 06:00S 28°16' E 153°48'815.5
2018-Feb-10 05:31S 28°08' E 153°50'815.4
2018-Feb-10 05:00S 28°01' E 153°50'815.2
2018-Feb-10 04:30S 27°53' E 153°51'815.1
2018-Feb-10 04:00S 27°46' E 153°52'815.2
2018-Feb-10 03:30S 27°38' E 153°53'815.1
2018-Feb-10 03:00S 27°30' E 153°53'815.2
2018-Feb-10 02:30S 27°23' E 153°53'815.5
2018-Feb-10 01:59S 27°15' E 153°53'715.5
2018-Feb-10 01:31S 27°07' E 153°54'815.4
2018-Feb-10 01:00S 26°60' E 153°55'815.4
2018-Feb-10 00:30S 26°52' E 153°55'915.2
2018-Feb-09 23:55S 26°43' E 153°55'615.3
2018-Feb-09 23:30S 26°37' E 153°55'915.2
2018-Feb-09 22:56S 26°28' E 153°55'315.2
2018-Feb-09 22:46S 26°25' E 153°56'  
Track history (hours):
 
Tides and Currents Weather Stations Pressure Air Temp Water Temp Dewpoint Dewpoint Depression Visibility Wind Speed Wind Dir Waves Ship Positions

Santa Lucia

Last reported at 2018-Feb-14 18:11 UTC. Time now 2018-Feb-24 12:18 UTC.
Position S 24°27' E 154°16'.
Warning: this ship's position is 9 days out of date.

Length 289 m; draft 15 m.

Type: Ship. MMSI: 371065000.

Date/timePositionNaut miles runAvg speedWind from/ knotsBaromVisibWave heightAir tempDewpointWater temp
2018-Feb-14 18:11S 24°27' E 154°16'1214.4
2018-Feb-14 17:19S 24°39' E 154°15'9312.6
2018-Feb-14 09:56S 26°11' E 154°04'810.7
2018-Feb-14 09:10S 26°19' E 154°04'210.7
2018-Feb-14 09:00S 26°21' E 154°03'1111.1
2018-Feb-14 08:03S 26°32' E 154°02'211.7
2018-Feb-14 07:55S 26°33' E 154°02'512.3
2018-Feb-14 07:29S 26°39' E 154°02'612.7
2018-Feb-14 07:01S 26°45' E 154°01'612.8
2018-Feb-14 06:30S 26°51' E 154°00'612.6
2018-Feb-14 06:01S 26°57' E 153°59'612.4
2018-Feb-14 05:30S 27°04' E 153°59'612.1
2018-Feb-14 05:00S 27°10' E 153°58'611.7
2018-Feb-14 04:30S 27°15' E 153°57'611.3
2018-Feb-14 03:59S 27°21' E 153°56'611.3
2018-Feb-14 03:29S 27°27' E 153°56'611.2
2018-Feb-14 02:54S 27°33' E 153°55'411.1
2018-Feb-14 02:31S 27°38' E 153°55'611.0
2018-Feb-14 02:01S 27°43' E 153°54'611.1
2018-Feb-14 01:31S 27°49' E 153°53'510.8
2018-Feb-14 01:00S 27°54' E 153°53'510.6
2018-Feb-14 00:30S 27°59' E 153°52'510.6
2018-Feb-14 00:01S 28°05' E 153°52'510.6
2018-Feb-13 23:30S 28°10' E 153°51'611.1
2018-Feb-13 23:00S 28°15' E 153°51'611.4
2018-Feb-13 22:30S 28°21' E 153°50'611.3
2018-Feb-13 22:00S 28°27' E 153°50'611.2
2018-Feb-13 21:30S 28°32' E 153°50'611.2
2018-Feb-13 21:00S 28°38' E 153°49'611.3
2018-Feb-13 20:30S 28°44' E 153°48'22011.8
2018-Feb-13 01:50S 32°18' E 152°50'514.7
2018-Feb-13 01:29S 32°22' E 152°48'714.2
2018-Feb-13 01:00S 32°28' E 152°44'713.8
2018-Feb-13 00:30S 32°33' E 152°38'713.3
2018-Feb-13 00:00S 32°38' E 152°32'713.1
2018-Feb-12 23:30S 32°42' E 152°27'713.2
2018-Feb-12 23:00S 32°47' E 152°21'612.9
2018-Feb-12 22:30S 32°51' E 152°16'613.0
2018-Feb-12 22:01S 32°54' E 152°08'712.9
2018-Feb-12 21:30S 32°56' E 152°01'612.2
2018-Feb-12 21:01S 32°56' E 151°54'4 8.4
2018-Feb-12 20:31S 32°55' E 151°49'2 4.3
2018-Feb-12 20:01S 32°55' E 151°47'2 3.4
2018-Feb-12 19:31S 32°53' E 151°46'0 0.1
2018-Feb-12 19:00S 32°53' E 151°46'0 0.0
2018-Feb-12 18:30S 32°53' E 151°46'0 0.0
2018-Feb-12 18:00S 32°53' E 151°46'0 0.0
2018-Feb-12 17:30S 32°53' E 151°46'0 0.0
2018-Feb-12 17:00S 32°53' E 151°46'0 0.0
2018-Feb-12 16:30S 32°53' E 151°46'0 0.0
2018-Feb-12 15:54S 32°53' E 151°46'0 0.0
2018-Feb-12 15:30S 32°53' E 151°46'0 0.0
2018-Feb-12 15:00S 32°53' E 151°46'0 0.0
2018-Feb-12 14:30S 32°53' E 151°46'0 0.1
2018-Feb-12 14:00S 32°53' E 151°46'0 0.1
2018-Feb-12 13:30S 32°53' E 151°46'0 0.0
2018-Feb-12 13:00S 32°53' E 151°46'0 0.0
2018-Feb-12 12:24S 32°53' E 151°46'0 0.0
2018-Feb-12 12:00S 32°53' E 151°46'0 0.0
2018-Feb-12 11:30S 32°53' E 151°46'0 0.0
2018-Feb-12 11:00S 32°53' E 151°46'0 0.0
2018-Feb-12 10:30S 32°53' E 151°46'0 0.1
2018-Feb-12 09:57S 32°53' E 151°46'0 0.0
2018-Feb-12 09:30S 32°53' E 151°46'0 0.1
2018-Feb-12 09:00S 32°53' E 151°46'0 0.0
2018-Feb-12 08:30S 32°53' E 151°46'0 0.0
2018-Feb-12 08:00S 32°53' E 151°46'0 0.0
2018-Feb-12 07:30S 32°53' E 151°46'0 0.0
2018-Feb-12 07:00S 32°53' E 151°46'0 0.0
2018-Feb-12 06:30S 32°53' E 151°46'0 0.0
2018-Feb-12 06:00S 32°53' E 151°46'0 0.0
2018-Feb-12 05:27S 32°53' E 151°46'0 0.0
2018-Feb-12 05:00S 32°53' E 151°46'0 0.0
2018-Feb-12 04:30S 32°53' E 151°46'0 0.0
2018-Feb-12 04:00S 32°53' E 151°46'0 0.0
2018-Feb-12 03:30S 32°53' E 151°46'0 0.0
2018-Feb-12 03:00S 32°53' E 151°46'0 0.0
2018-Feb-12 02:30S 32°53' E 151°46'0 0.1
2018-Feb-12 02:00S 32°53' E 151°46'0 0.1
2018-Feb-12 01:30S 32°53' E 151°46'0 0.0
2018-Feb-12 01:00S 32°53' E 151°46'0 0.0
2018-Feb-12 00:30S 32°53' E 151°46'0 0.0
2018-Feb-12 00:00S 32°53' E 151°46'0 0.0
2018-Feb-11 23:30S 32°53' E 151°46'0 0.0
2018-Feb-11 23:00S 32°53' E 151°46'0 0.0
2018-Feb-11 22:30S 32°53' E 151°46'0 0.1
2018-Feb-11 22:00S 32°53' E 151°46'0 0.1
2018-Feb-11 21:30S 32°53' E 151°46'0 0.0
2018-Feb-11 21:00S 32°53' E 151°46'0 0.0
2018-Feb-11 20:30S 32°53' E 151°46'0 0.0
2018-Feb-11 20:00S 32°53' E 151°46'0 0.0
2018-Feb-11 19:30S 32°53' E 151°46'0 0.0
2018-Feb-11 19:00S 32°53' E 151°46'0 0.1
2018-Feb-11 18:30S 32°53' E 151°46'0 0.0
2018-Feb-11 18:00S 32°53' E 151°46'0 0.1
2018-Feb-11 17:30S 32°53' E 151°46'0 0.0
2018-Feb-11 17:00S 32°53' E 151°46'0 0.0
2018-Feb-11 16:30S 32°53' E 151°46'0 0.0
2018-Feb-11 16:00S 32°53' E 151°46'0 0.0
2018-Feb-11 15:30S 32°53' E 151°46'0 0.0
2018-Feb-11 15:00S 32°53' E 151°46'0 0.0
2018-Feb-11 14:30S 32°53' E 151°46'0 0.1
2018-Feb-11 14:00S 32°53' E 151°46'0 0.1
2018-Feb-11 13:30S 32°53' E 151°46'0 0.0
2018-Feb-11 13:00S 32°53' E 151°46'0 0.1
2018-Feb-11 12:30S 32°53' E 151°46'1 1.5
2018-Feb-11 12:00S 32°54' E 151°46'2 3.1
2018-Feb-11 11:30S 32°55' E 151°48'4 8.5
2018-Feb-11 11:00S 32°58' E 151°52'4 7.2
2018-Feb-11 10:30S 33°00' E 151°54'3 6.3
2018-Feb-11 10:00S 33°03' E 151°57'3 6.4
2018-Feb-11 09:30S 33°05' E 151°59'2 4.1
2018-Feb-11 09:00S 33°07' E 152°01'1 2.3
2018-Feb-11 08:30S 33°06' E 151°60'4 7.7
2018-Feb-11 08:00S 33°05' E 151°55'1 2.3
2018-Feb-11 07:30S 33°04' E 151°54'0 0.6
2018-Feb-11 07:00S 33°04' E 151°55'1 1.9
2018-Feb-11 06:30S 33°04' E 151°54'4 7.8
2018-Feb-11 06:00S 33°00' E 151°52'4 8.4
2018-Feb-11 05:30S 32°56' E 151°52'2 4.0
2018-Feb-11 05:00S 32°55' E 151°50'4 8.7
2018-Feb-11 04:30S 32°59' E 151°53'3 6.0
2018-Feb-11 04:00S 33°01' E 151°54'1 2.3
2018-Feb-11 03:30S 33°01' E 151°55'1 1.8
2018-Feb-11 03:00S 33°00' E 151°56'1 2.6
2018-Feb-11 02:30S 32°60' E 151°57'2 4.6
2018-Feb-11 02:00S 32°58' E 151°59'3 6.0
2018-Feb-11 01:30S 32°56' E 152°01'713.6
2018-Feb-11 01:00S 32°53' E 152°09'713.5
2018-Feb-11 00:30S 32°50' E 152°16'613.0
2018-Feb-11 00:00S 32°46' E 152°22'713.9
2018-Feb-10 23:30S 32°41' E 152°28'714.6
2018-Feb-10 23:00S 32°36' E 152°34'714.5
2018-Feb-10 22:30S 32°31' E 152°40'714.2
2018-Feb-10 22:00S 32°26' E 152°46'714.1
2018-Feb-10 21:30S 32°19' E 152°49'714.0
2018-Feb-10 21:00S 32°13' E 152°52'714.2
2018-Feb-10 20:30S 32°06' E 152°56'714.9
2018-Feb-10 20:01S 31°60' E 152°59'816.8
2018-Feb-10 19:30S 31°52' E 153°03'1117.3
2018-Feb-10 18:52S 31°42' E 153°08'917.2
2018-Feb-10 18:22S 31°34' E 153°12'18216.3
2018-Feb-10 07:11S 28°34' E 153°45'315.3
2018-Feb-10 07:01S 28°31' E 153°46'815.5
2018-Feb-10 06:31S 28°24' E 153°47'815.6
2018-Feb-10 06:00S 28°16' E 153°48'815.5
2018-Feb-10 05:31S 28°08' E 153°50'815.4
2018-Feb-10 05:00S 28°01' E 153°50'815.2
2018-Feb-10 04:30S 27°53' E 153°51'815.1
2018-Feb-10 04:00S 27°46' E 153°52'815.2
2018-Feb-10 03:30S 27°38' E 153°53'815.1
2018-Feb-10 03:00S 27°30' E 153°53'815.2
2018-Feb-10 02:30S 27°23' E 153°53'815.5
2018-Feb-10 01:59S 27°15' E 153°53'715.5
2018-Feb-10 01:31S 27°07' E 153°54'815.4
2018-Feb-10 01:00S 26°60' E 153°55'815.4
2018-Feb-10 00:30S 26°52' E 153°55'915.2
2018-Feb-09 23:55S 26°43' E 153°55'615.3
2018-Feb-09 23:30S 26°37' E 153°55'915.2
2018-Feb-09 22:56S 26°28' E 153°55'315.2
2018-Feb-09 22:46S 26°25' E 153°56'  

Dump ship's entire track history